< < Back
Terminal Aerodrome Forecast


Current Version              Previous Versions:   1  2  3  4  5  6  7  8  9  

Terminal Aerodrome Forecast

528
FTUS42 KGSP 051125
TAFAVL
TAF
KAVL 051125Z 0512/0612 00000KT P6SM FEW070
     FM051800 15004KT P6SM BKN050
     FM060200 00000KT P6SM SCT050
     FM060900 00000KT 4SM BR FEW050=



Latest METAR

250
SAUS70 KWBC 051700 RRQ
MTRAVL
METAR KAVL 051654Z VRB04KT 10SM SCT090 25/11 A3035 RMK AO2 SLP254
T02500111


USA.gov is the U.S. government's official web portal to all federal, state and local government web resources and services.